createdAt,value
2022-08-12T00:00:10.840Z,3.22
2022-08-12T00:02:56.347Z,3.00
2022-08-12T00:06:01.931Z,3.10
2022-08-12T00:08:48.105Z,3.20
2022-08-12T00:11:33.685Z,3.30
2022-08-12T00:14:19.093Z,3.58
2022-08-12T00:17:06.470Z,2.85
2022-08-12T00:19:52.075Z,3.53
2022-08-12T00:22:38.616Z,3.30
2022-08-12T00:26:01.392Z,3.10
2022-08-12T00:28:30.709Z,3.00
2022-08-12T00:31:16.729Z,3.40
2022-08-12T00:34:03.624Z,2.97
2022-08-12T00:36:51.331Z,3.20
2022-08-12T00:39:37.145Z,3.40
2022-08-12T00:42:10.814Z,3.83
2022-08-12T00:44:40.089Z,3.13
2022-08-12T00:47:09.432Z,3.38
2022-08-12T00:49:55.683Z,3.33
2022-08-12T00:52:25.305Z,3.05
2022-08-12T00:54:57.120Z,3.90
2022-08-12T00:57:27.091Z,3.42
2022-08-12T00:59:57.409Z,3.60
2022-08-12T01:02:26.896Z,3.65
2022-08-12T01:05:15.869Z,3.28
2022-08-12T01:08:02.773Z,3.30
2022-08-12T01:10:50.365Z,3.20
2022-08-12T01:13:20.624Z,2.90
2022-08-12T01:15:51.777Z,3.33
2022-08-12T01:18:21.564Z,3.58
2022-08-12T01:21:00.711Z,3.25
2022-08-12T01:23:50.187Z,3.55
2022-08-12T01:26:21.233Z,3.58
2022-08-12T01:28:51.062Z,3.58
2022-08-12T01:31:20.296Z,3.45
2022-08-12T01:33:59.744Z,3.50
2022-08-12T01:36:29.316Z,3.35
2022-08-12T01:39:00.050Z,3.45
2022-08-12T01:41:32.523Z,3.92
2022-08-12T01:44:02.310Z,3.70
2022-08-12T01:46:42.896Z,3.78
2022-08-12T01:49:32.895Z,3.42
2022-08-12T01:52:21.312Z,3.72
2022-08-12T01:54:51.136Z,3.45
2022-08-12T01:57:59.064Z,3.17
2022-08-12T02:00:19.492Z,3.60
2022-08-12T02:03:03.473Z,3.50
2022-08-12T02:06:01.282Z,3.55
2022-08-12T02:08:52.542Z,4.15
2022-08-12T02:11:24.070Z,3.40
2022-08-12T02:14:06.737Z,3.65
2022-08-12T02:16:51.672Z,3.65
2022-08-12T02:19:50.414Z,4.10
2022-08-12T02:22:28.534Z,3.70
2022-08-12T02:25:04.576Z,3.55
2022-08-12T02:27:39.361Z,3.80
2022-08-12T02:30:11.708Z,3.88
2022-08-12T02:32:41.812Z,3.78
2022-08-12T02:35:14.866Z,3.50
2022-08-12T02:37:45.410Z,3.97
2022-08-12T02:40:15.428Z,3.60
2022-08-12T02:42:51.349Z,3.90
2022-08-12T02:45:26.852Z,3.67
2022-08-12T02:48:00.898Z,4.00
2022-08-12T02:50:32.467Z,3.10
2022-08-12T02:53:01.104Z,4.07
2022-08-12T02:55:34.865Z,4.22
2022-08-12T02:58:06.968Z,3.60
2022-08-12T03:00:39.665Z,3.65
2022-08-12T03:03:09.090Z,3.63
2022-08-12T03:05:44.326Z,3.97
2022-08-12T03:08:19.097Z,3.58
2022-08-12T03:11:04.732Z,3.42
2022-08-12T03:13:43.147Z,3.70
2022-08-12T03:16:12.791Z,3.78
2022-08-12T03:18:45.804Z,4.00
2022-08-12T03:21:52.780Z,3.75
2022-08-12T03:24:09.192Z,3.63
2022-08-12T03:26:38.028Z,3.58
2022-08-12T03:29:09.637Z,3.85
2022-08-12T03:31:39.251Z,3.33
2022-08-12T03:34:10.542Z,3.60
2022-08-12T03:36:40.353Z,3.92
2022-08-12T03:39:35.638Z,3.40
2022-08-12T03:42:38.404Z,3.97
2022-08-12T03:45:32.373Z,3.63
2022-08-12T03:48:27.723Z,3.65
2022-08-12T03:51:14.094Z,3.78
2022-08-12T03:54:00.602Z,3.78
2022-08-12T03:56:46.031Z,3.75
2022-08-12T03:59:32.315Z,3.63
2022-08-12T04:02:00.407Z,3.83
2022-08-12T04:04:34.693Z,3.53
2022-08-12T04:07:03.728Z,4.18
2022-08-12T04:09:31.815Z,3.92
2022-08-12T04:12:17.129Z,3.80
2022-08-12T04:14:45.434Z,3.83
2022-08-12T04:17:14.386Z,3.53
2022-08-12T04:19:44.042Z,3.53
2022-08-12T04:22:12.518Z,3.72
2022-08-12T04:24:41.609Z,3.70
2022-08-12T04:27:12.502Z,3.70
2022-08-12T04:30:16.726Z,4.00
2022-08-12T04:32:28.921Z,3.95
2022-08-12T04:34:58.870Z,4.03
2022-08-12T04:37:26.899Z,3.70
2022-08-12T04:39:55.199Z,3.75
2022-08-12T04:42:23.724Z,3.80
2022-08-12T04:44:51.539Z,4.20
2022-08-12T04:47:21.772Z,4.00
2022-08-12T04:49:49.700Z,3.88
2022-08-12T04:52:19.574Z,3.92
2022-08-12T04:54:49.197Z,3.40
2022-08-12T04:57:17.018Z,3.42
2022-08-12T04:59:48.247Z,3.30
2022-08-12T05:02:21.534Z,3.42
2022-08-12T05:04:52.327Z,3.05
2022-08-12T05:07:24.116Z,3.30
2022-08-12T05:10:00.630Z,3.08
2022-08-12T05:12:38.440Z,2.72
2022-08-12T05:15:19.770Z,3.10
2022-08-12T05:18:00.133Z,2.92
2022-08-12T05:20:45.040Z,2.83
2022-08-12T05:23:17.884Z,2.85
2022-08-12T05:25:47.494Z,3.28
2022-08-12T05:28:16.196Z,2.90
2022-08-12T05:30:46.679Z,2.60
2022-08-12T05:33:15.456Z,2.90
2022-08-12T05:35:45.691Z,2.80
2022-08-12T05:38:34.137Z,2.47
2022-08-12T05:41:03.296Z,3.00
2022-08-12T05:43:31.195Z,2.78
2022-08-12T05:45:58.974Z,2.58
2022-08-12T05:48:27.420Z,2.83
2022-08-12T05:50:56.650Z,2.70
2022-08-12T05:53:25.763Z,2.80
2022-08-12T05:55:54.756Z,2.28
2022-08-12T05:58:22.516Z,2.33
2022-08-12T06:00:50.342Z,2.22
2022-08-12T06:03:19.724Z,2.40
2022-08-12T06:05:54.819Z,2.50
2022-08-12T06:08:26.448Z,2.33
2022-08-12T06:10:56.979Z,2.42
2022-08-12T06:13:28.008Z,2.60
2022-08-12T06:16:14.332Z,2.50
2022-08-12T06:18:43.075Z,2.30
2022-08-12T06:21:12.215Z,2.40
2022-08-12T06:23:42.803Z,2.63
2022-08-12T06:26:12.699Z,2.50
2022-08-12T06:28:41.305Z,2.10
2022-08-12T06:31:25.851Z,2.40
2022-08-12T06:34:52.846Z,2.60
2022-08-12T06:36:44.180Z,2.40
2022-08-12T06:39:15.458Z,2.20
2022-08-12T06:42:32.061Z,2.20
2022-08-12T06:44:50.436Z,2.17
2022-08-12T06:47:19.338Z,2.20
2022-08-12T06:49:49.465Z,2.10
2022-08-12T06:52:19.242Z,2.10
2022-08-12T06:54:48.355Z,2.20
2022-08-12T06:58:05.548Z,1.92
2022-08-12T07:00:05.602Z,2.42
2022-08-12T07:02:36.886Z,2.22
2022-08-12T07:05:05.526Z,2.17
2022-08-12T07:07:33.262Z,2.05
2022-08-12T07:10:07.402Z,1.90
2022-08-12T07:12:36.755Z,2.20
2022-08-12T07:15:05.354Z,2.00
2022-08-12T07:17:37.247Z,2.00
2022-08-12T07:20:09.981Z,1.77
2022-08-12T07:22:39.649Z,2.08
2022-08-12T07:25:27.271Z,2.00
2022-08-12T07:27:55.352Z,2.20
2022-08-12T07:30:23.817Z,2.10
2022-08-12T07:32:52.213Z,2.05
2022-08-12T07:35:20.858Z,1.75
2022-08-12T07:37:50.326Z,2.25
2022-08-12T07:40:20.171Z,2.10
2022-08-12T07:42:48.411Z,1.63
2022-08-12T07:45:16.243Z,1.90
2022-08-12T07:47:44.795Z,2.00
2022-08-12T07:50:13.842Z,1.70
2022-08-12T07:52:44.320Z,2.00
2022-08-12T07:55:12.995Z,1.90
2022-08-12T07:57:53.471Z,1.80
2022-08-12T08:00:21.757Z,2.00
2022-08-12T08:02:50.297Z,1.85
2022-08-12T08:05:19.392Z,1.70
2022-08-12T08:07:48.093Z,1.65
2022-08-12T08:10:16.774Z,1.90
2022-08-12T08:12:58.026Z,1.80
2022-08-12T08:16:00.782Z,1.73
2022-08-12T08:18:26.920Z,1.67
2022-08-12T08:20:57.181Z,1.63
2022-08-12T08:23:56.524Z,1.90
2022-08-12T08:26:27.194Z,1.73
2022-08-12T08:28:55.153Z,1.75
2022-08-12T08:31:24.221Z,1.30
2022-08-12T08:34:01.358Z,1.50
2022-08-12T08:36:43.565Z,1.67
2022-08-12T08:39:14.569Z,1.60
2022-08-12T08:42:16.030Z,1.60
2022-08-12T08:44:49.805Z,1.38
2022-08-12T08:47:27.291Z,1.60
2022-08-12T08:50:00.816Z,1.70
2022-08-12T08:52:39.374Z,1.73
2022-08-12T08:55:10.144Z,1.88
2022-08-12T08:57:42.873Z,1.30
2022-08-12T09:03:04.427Z,1.10
2022-08-12T09:06:03.001Z,1.40
2022-08-12T09:08:31.005Z,1.35
2022-08-12T09:12:07.024Z,1.27
2022-08-12T09:14:11.852Z,1.40
2022-08-12T09:16:42.569Z,1.20
2022-08-12T09:19:27.412Z,1.10
2022-08-12T09:21:57.220Z,1.20
2022-08-12T09:24:28.129Z,1.20
2022-08-12T09:26:58.983Z,1.30
2022-08-12T09:30:08.801Z,1.40
2022-08-12T09:32:56.129Z,1.25
2022-08-12T09:35:03.751Z,1.40
2022-08-12T09:37:58.591Z,1.15
2022-08-12T09:41:03.860Z,1.05
2022-08-12T09:43:26.572Z,1.10
2022-08-12T09:46:11.550Z,1.20
2022-08-12T09:48:56.447Z,1.25
2022-08-12T09:51:37.565Z,1.00
2022-08-12T09:54:30.883Z,1.52
2022-08-12T09:57:00.873Z,1.00
2022-08-12T10:00:13.023Z,1.00
2022-08-12T10:02:44.095Z,0.90
2022-08-12T10:05:13.701Z,1.30
2022-08-12T10:07:43.194Z,1.20
2022-08-12T10:10:22.939Z,1.38
2022-08-12T10:13:34.869Z,1.15
2022-08-12T10:16:05.528Z,1.40
2022-08-12T10:18:35.497Z,1.08
2022-08-12T10:21:07.740Z,1.00
2022-08-12T10:23:39.962Z,1.23
2022-08-12T10:26:36.891Z,1.33
2022-08-12T10:30:37.510Z,1.30
2022-08-12T10:32:21.246Z,1.40
2022-08-12T10:34:53.576Z,1.00
2022-08-12T10:38:33.283Z,1.20
2022-08-12T10:40:20.510Z,1.30
2022-08-12T10:43:08.359Z,0.90
2022-08-12T10:45:38.380Z,1.10
2022-08-12T10:48:21.357Z,1.30
2022-08-12T10:51:02.612Z,1.60
2022-08-12T10:53:44.164Z,1.20
2022-08-12T10:56:16.455Z,1.30
2022-08-12T11:04:32.099Z,1.20
2022-08-12T11:04:49.186Z,1.30
2022-08-12T11:08:33.577Z,1.55
2022-08-12T11:10:07.573Z,1.30
2022-08-12T11:13:45.862Z,1.30
2022-08-12T11:17:42.690Z,1.15
2022-08-12T11:20:51.998Z,1.30
2022-08-12T11:23:25.018Z,1.35
2022-08-12T11:26:06.522Z,1.00
2022-08-12T11:28:37.814Z,1.05
2022-08-12T11:31:14.533Z,1.20
2022-08-12T12:06:00.587Z,1.60
2022-08-12T12:12:49.927Z,1.33
2022-08-12T12:15:45.171Z,1.60
2022-08-12T12:18:57.327Z,1.20
2022-08-12T12:21:57.653Z,1.10
2022-08-12T12:28:36.914Z,0.98
2022-08-12T12:32:11.525Z,1.17
2022-08-12T12:35:13.798Z,1.55
2022-08-12T12:38:48.495Z,1.60
2022-08-12T12:41:22.351Z,1.40
2022-08-12T12:44:50.831Z,1.45
2022-08-12T12:47:31.724Z,1.40
2022-08-12T12:50:34.914Z,1.20
2022-08-12T12:57:00.556Z,1.50
2022-08-12T13:00:16.317Z,1.30
2022-08-12T13:03:00.875Z,1.40
2022-08-12T13:06:12.445Z,1.30
2022-08-12T13:09:11.143Z,1.13
2022-08-12T13:12:33.923Z,1.35
2022-08-12T13:15:45.432Z,1.52
2022-08-12T13:18:28.423Z,1.63
2022-08-12T13:21:05.266Z,1.20
2022-08-12T13:23:50.367Z,1.50
2022-08-12T13:26:46.066Z,1.20
2022-08-12T13:29:45.104Z,1.38
2022-08-12T13:32:31.340Z,1.38
2022-08-12T13:35:33.217Z,1.38
2022-08-12T13:38:10.505Z,1.30
2022-08-12T13:40:56.068Z,1.30
2022-08-12T13:43:41.127Z,1.33
2022-08-12T13:46:12.453Z,1.30
2022-08-12T13:48:44.727Z,1.40
2022-08-12T13:51:13.690Z,1.38
2022-08-12T13:53:55.000Z,1.30
2022-08-12T13:56:34.682Z,1.42
2022-08-12T13:59:09.186Z,1.35
2022-08-12T14:01:50.376Z,1.25
2022-08-12T14:04:24.971Z,1.40
2022-08-12T14:06:54.727Z,1.42
2022-08-12T14:09:22.687Z,1.20
2022-08-12T14:12:24.300Z,1.60
2022-08-12T14:15:58.943Z,1.40
2022-08-12T14:19:25.016Z,1.33
2022-08-12T14:22:26.002Z,1.23
2022-08-12T14:25:57.175Z,1.20
2022-08-12T14:28:57.883Z,1.55
2022-08-12T14:34:56.527Z,1.50
2022-08-12T14:37:56.781Z,1.65
2022-08-12T14:44:57.601Z,1.45
2022-08-12T14:50:57.447Z,1.30
2022-08-12T15:08:06.553Z,1.60
2022-08-12T15:10:54.001Z,1.33
2022-08-12T15:13:43.357Z,1.75
2022-08-12T15:16:35.385Z,1.38
2022-08-12T15:19:12.649Z,1.88
2022-08-12T15:22:38.734Z,1.58
2022-08-12T15:24:39.177Z,1.58
2022-08-12T15:27:08.689Z,1.33
2022-08-12T15:29:37.428Z,1.75
2022-08-12T15:32:15.742Z,1.50
2022-08-12T15:34:43.967Z,1.50
2022-08-12T15:38:09.203Z,1.60
2022-08-12T15:40:30.078Z,1.50
2022-08-12T15:43:11.243Z,1.38
2022-08-12T15:45:50.871Z,1.17
2022-08-12T15:48:30.403Z,1.40
2022-08-12T15:50:58.850Z,1.35
2022-08-12T15:53:41.409Z,1.30
2022-08-12T15:56:12.824Z,1.52
2022-08-12T15:58:42.886Z,1.30
2022-08-12T16:01:14.899Z,1.67
2022-08-12T16:03:45.977Z,1.48
2022-08-12T16:06:52.055Z,1.20
2022-08-12T16:09:17.419Z,1.40
2022-08-12T16:12:03.781Z,1.10
2022-08-12T16:14:46.018Z,1.27
2022-08-12T16:21:51.761Z,1.20
2022-08-12T16:28:18.874Z,1.50
2022-08-12T16:30:54.172Z,1.63
2022-08-12T16:33:22.928Z,1.35
2022-08-12T16:36:04.689Z,1.50
2022-08-12T16:38:34.631Z,1.42
2022-08-12T16:41:07.226Z,1.60
2022-08-12T16:43:43.998Z,1.40
2022-08-12T16:46:32.287Z,2.22
2022-08-12T16:49:43.586Z,1.45
2022-08-12T16:52:14.405Z,1.10
2022-08-12T16:54:59.176Z,1.02
2022-08-12T16:58:30.383Z,1.42
2022-08-12T17:01:08.967Z,1.40
2022-08-12T17:03:47.122Z,1.48
2022-08-12T17:06:29.156Z,1.38
2022-08-12T17:09:40.226Z,1.33
2022-08-12T17:12:10.627Z,0.98
2022-08-12T17:20:29.642Z,1.17
2022-08-12T17:22:30.819Z,1.48
2022-08-12T17:25:58.034Z,1.35
2022-08-12T17:28:41.880Z,1.42
2022-08-12T17:31:16.423Z,1.60
2022-08-12T17:34:06.820Z,2.00
2022-08-12T17:37:02.830Z,1.90
2022-08-12T17:40:06.478Z,2.20
2022-08-12T17:42:32.638Z,2.67
2022-08-12T17:46:00.342Z,2.80
2022-08-12T17:51:49.969Z,2.80
2022-08-12T17:58:05.621Z,3.08
2022-08-12T18:00:42.572Z,2.92
2022-08-12T18:04:04.968Z,2.85
2022-08-12T18:06:14.574Z,3.50
2022-08-12T18:13:40.947Z,3.40
2022-08-12T18:20:19.075Z,3.92
2022-08-12T18:29:43.512Z,4.38
2022-08-12T18:32:53.711Z,3.95
2022-08-12T18:35:10.936Z,4.30
2022-08-12T18:37:42.592Z,4.45
2022-08-12T18:43:21.651Z,4.72
2022-08-12T18:45:57.627Z,5.20
2022-08-12T19:04:10.940Z,4.57
2022-08-12T19:07:05.290Z,4.35
2022-08-12T19:40:43.092Z,4.10
2022-08-12T19:43:20.667Z,4.10
2022-08-12T19:46:08.215Z,4.10
2022-08-12T19:49:49.726Z,4.10
2022-08-12T19:52:22.206Z,3.80
2022-08-12T19:54:56.118Z,3.72
2022-08-12T20:02:02.691Z,3.95
2022-08-12T20:24:22.077Z,4.03
2022-08-12T20:26:52.410Z,4.03
2022-08-12T20:29:21.175Z,4.10
2022-08-12T20:31:52.011Z,3.90
2022-08-12T20:34:21.306Z,3.85
2022-08-12T20:36:57.192Z,4.43
2022-08-12T20:39:52.965Z,4.05
2022-08-12T20:42:31.307Z,4.25
2022-08-12T20:45:00.894Z,4.32
2022-08-12T20:47:42.156Z,3.60
2022-08-12T20:50:15.879Z,3.60
2022-08-12T20:52:49.151Z,3.60
2022-08-12T20:55:21.607Z,3.42
2022-08-12T20:58:10.692Z,3.72
2022-08-12T21:00:40.687Z,3.42
2022-08-12T21:03:30.109Z,4.40
2022-08-12T21:06:19.707Z,3.63
2022-08-12T21:08:54.322Z,4.03
2022-08-12T21:11:24.678Z,3.88
2022-08-12T21:13:59.121Z,4.00
2022-08-12T21:16:35.443Z,3.50
2022-08-12T21:19:17.635Z,3.20
2022-08-12T21:21:58.758Z,3.55
2022-08-12T21:24:31.665Z,3.70
2022-08-12T21:27:07.496Z,3.13
2022-08-12T21:29:49.925Z,3.65
2022-08-12T21:32:46.780Z,3.30
2022-08-12T21:35:19.322Z,3.60
2022-08-12T21:37:53.005Z,3.40
2022-08-12T21:40:22.086Z,3.80
2022-08-12T21:43:08.272Z,3.35
2022-08-12T21:45:46.182Z,3.00
2022-08-12T21:48:28.419Z,3.33
2022-08-12T21:50:56.464Z,3.15
2022-08-12T21:54:05.843Z,3.22
2022-08-12T21:56:34.573Z,3.22
2022-08-12T21:59:04.357Z,3.17
2022-08-12T22:01:44.298Z,3.40
2022-08-12T22:04:35.449Z,3.38
2022-08-12T22:07:03.713Z,3.28
2022-08-12T22:09:43.068Z,2.75
2022-08-12T22:12:29.258Z,3.13
2022-08-12T22:14:58.592Z,3.20
2022-08-12T22:17:33.832Z,2.90
2022-08-12T22:20:17.947Z,3.10
2022-08-12T22:22:53.878Z,2.80
2022-08-12T22:25:27.787Z,3.03
2022-08-12T22:28:15.593Z,2.63
2022-08-12T22:31:02.428Z,2.90
2022-08-12T22:33:30.493Z,2.80
2022-08-12T22:36:29.220Z,2.60
2022-08-12T22:38:59.325Z,2.30
2022-08-12T22:41:45.436Z,2.28
2022-08-12T22:44:31.640Z,2.63
2022-08-12T22:47:53.185Z,2.55
2022-08-12T22:50:27.553Z,2.22
2022-08-12T22:53:15.014Z,2.00
2022-08-12T22:55:59.235Z,2.20
2022-08-12T22:58:33.406Z,2.17
2022-08-12T23:01:03.293Z,2.05
2022-08-12T23:03:49.226Z,2.10
2022-08-12T23:06:21.267Z,1.80
2022-08-12T23:08:49.841Z,1.70
2022-08-12T23:11:23.771Z,2.20
2022-08-12T23:13:56.844Z,2.08
2022-08-12T23:16:31.066Z,2.10
2022-08-12T23:19:09.689Z,1.98
2022-08-12T23:22:06.540Z,2.15
2022-08-12T23:24:30.336Z,1.80
2022-08-12T23:27:16.710Z,1.75
2022-08-12T23:29:59.375Z,1.92
2022-08-12T23:32:37.246Z,1.90
2022-08-12T23:35:08.311Z,1.85
2022-08-12T23:37:46.664Z,1.92
2022-08-12T23:40:18.264Z,2.10
2022-08-12T23:42:47.970Z,1.95
2022-08-12T23:45:19.166Z,2.25
2022-08-12T23:47:59.160Z,2.00
2022-08-12T23:50:34.434Z,1.90
2022-08-12T23:53:05.549Z,1.85
2022-08-12T23:55:40.762Z,1.98
2022-08-12T23:58:21.253Z,2.10
